createdAt,value
2023-05-25T00:00:53.460Z,17.42
2023-05-25T00:03:27.777Z,8.25
2023-05-25T00:05:54.548Z,6.13
2023-05-25T00:08:21.205Z,4.13
2023-05-25T00:10:47.718Z,4.70
2023-05-25T00:13:14.194Z,8.50
2023-05-25T00:15:40.918Z,4.72
2023-05-25T00:18:07.709Z,7.40
2023-05-25T00:20:34.643Z,4.93
2023-05-25T00:23:02.413Z,7.60
2023-05-25T00:25:29.626Z,9.15
2023-05-25T00:27:56.148Z,7.20
2023-05-25T00:30:22.659Z,6.47
2023-05-25T00:32:49.192Z,4.88
2023-05-25T00:35:15.721Z,5.72
2023-05-25T00:37:42.222Z,2.97
2023-05-25T00:40:14.369Z,3.78
2023-05-25T00:42:41.028Z,3.45
2023-05-25T00:45:08.572Z,3.20
2023-05-25T00:47:35.641Z,4.38
2023-05-25T00:50:03.346Z,3.67
2023-05-25T00:52:30.123Z,10.18
2023-05-25T00:55:00.456Z,4.32
2023-05-25T00:57:29.856Z,4.63
2023-05-25T00:59:58.201Z,6.03
2023-05-25T01:02:29.172Z,4.57
2023-05-25T01:05:00.511Z,7.88
2023-05-25T01:07:28.392Z,7.40
2023-05-25T01:10:02.242Z,8.23
2023-05-25T01:12:29.964Z,10.15
2023-05-25T01:14:56.882Z,6.05
2023-05-25T01:17:26.472Z,5.50
2023-05-25T01:20:08.895Z,5.97
2023-05-25T01:22:47.836Z,5.03
2023-05-25T01:25:21.915Z,8.80
2023-05-25T01:27:58.800Z,7.55
2023-05-25T01:30:26.883Z,5.95
2023-05-25T01:32:54.859Z,6.72
2023-05-25T01:35:22.908Z,8.30
2023-05-25T01:37:49.891Z,10.82
2023-05-25T01:40:16.416Z,11.13
2023-05-25T01:42:43.028Z,6.32
2023-05-25T01:45:11.578Z,7.63
2023-05-25T01:47:48.464Z,10.02
2023-05-25T01:50:26.772Z,10.93
2023-05-25T01:53:18.873Z,9.85
2023-05-25T01:55:57.347Z,10.07
2023-05-25T01:58:26.588Z,8.93
2023-05-25T02:00:54.185Z,11.90
2023-05-25T02:03:21.480Z,10.95
2023-05-25T02:05:48.954Z,8.02
2023-05-25T02:08:15.458Z,5.43
2023-05-25T02:10:41.970Z,7.60
2023-05-25T02:13:08.506Z,6.70
2023-05-25T02:15:35.155Z,3.92
2023-05-25T02:18:02.068Z,5.13
2023-05-25T02:20:30.746Z,6.63
2023-05-25T02:22:57.321Z,5.68
2023-05-25T02:25:23.898Z,4.60
2023-05-25T02:27:50.703Z,3.75
2023-05-25T02:30:17.199Z,4.13
2023-05-25T02:32:43.785Z,3.58
2023-05-25T02:35:10.295Z,3.75
2023-05-25T02:37:37.930Z,4.03
2023-05-25T02:40:06.100Z,2.35
2023-05-25T02:42:32.578Z,2.70
2023-05-25T02:44:59.151Z,2.55
2023-05-25T02:47:26.189Z,3.17
2023-05-25T02:49:52.732Z,2.70
2023-05-25T02:52:19.461Z,6.40
2023-05-25T02:54:45.980Z,4.03
2023-05-25T02:57:18.612Z,3.97
2023-05-25T02:59:45.102Z,4.35
2023-05-25T03:02:12.006Z,3.38
2023-05-25T03:04:39.548Z,6.60
2023-05-25T03:07:06.077Z,5.35
2023-05-25T03:09:32.654Z,5.03
2023-05-25T03:12:00.718Z,6.03
2023-05-25T03:14:27.647Z,8.13
2023-05-25T03:17:01.106Z,8.10
2023-05-25T03:19:27.668Z,6.88
2023-05-25T03:21:54.191Z,6.63
2023-05-25T03:24:20.677Z,12.18
2023-05-25T03:26:47.727Z,9.05
2023-05-25T03:29:14.933Z,13.35
2023-05-25T03:31:41.446Z,7.45
2023-05-25T03:34:08.143Z,10.32
2023-05-25T03:36:37.541Z,9.80
2023-05-25T03:39:04.769Z,9.48
2023-05-25T03:41:31.390Z,10.02
2023-05-25T03:43:57.960Z,9.45
2023-05-25T03:46:24.464Z,11.50
2023-05-25T03:48:51.022Z,14.70
2023-05-25T03:51:17.503Z,8.00
2023-05-25T03:53:45.105Z,9.38
2023-05-25T03:56:11.583Z,8.63
2023-05-25T03:58:38.045Z,7.68
2023-05-25T04:01:05.452Z,10.38
2023-05-25T04:03:33.162Z,13.30
2023-05-25T04:06:00.551Z,10.82
2023-05-25T04:08:28.763Z,9.60
2023-05-25T04:10:56.083Z,7.95
2023-05-25T04:13:22.685Z,9.95
2023-05-25T04:15:50.228Z,8.07
2023-05-25T04:20:48.011Z,7.68
2023-05-25T04:23:15.895Z,6.13
2023-05-25T04:25:45.400Z,5.53
2023-05-25T04:28:12.396Z,10.27
2023-05-25T04:30:59.851Z,6.95
2023-05-25T04:33:45.414Z,13.60
2023-05-25T04:36:26.606Z,11.32
2023-05-25T04:38:55.333Z,13.90
2023-05-25T04:41:23.337Z,13.83
2023-05-25T04:44:07.990Z,12.40
2023-05-25T04:46:39.149Z,18.80
2023-05-25T04:49:08.443Z,17.38
2023-05-25T04:51:36.105Z,22.30
2023-05-25T04:54:03.104Z,39.72
2023-05-25T04:56:29.600Z,30.40
2023-05-25T04:58:57.098Z,31.95
2023-05-25T05:01:24.059Z,24.35
2023-05-25T05:03:50.924Z,35.13
2023-05-25T05:06:18.039Z,32.78
2023-05-25T05:08:44.786Z,28.25
2023-05-25T05:11:11.885Z,23.98
2023-05-25T05:13:38.767Z,35.22
2023-05-25T05:16:05.649Z,30.58
2023-05-25T05:18:32.968Z,31.00
2023-05-25T05:20:59.800Z,37.63
2023-05-25T05:23:26.736Z,35.05
2023-05-25T05:25:53.861Z,30.02
2023-05-25T05:28:20.433Z,32.67
2023-05-25T05:30:47.451Z,34.67
2023-05-25T05:33:14.643Z,33.22
2023-05-25T05:35:46.085Z,38.70
2023-05-25T05:38:17.212Z,39.88
2023-05-25T05:40:43.758Z,30.83
2023-05-25T05:43:14.136Z,40.58
2023-05-25T05:45:41.185Z,32.95
2023-05-25T05:48:11.067Z,31.50
2023-05-25T05:50:40.976Z,32.23
2023-05-25T05:53:09.866Z,31.75
2023-05-25T05:55:36.729Z,33.55
2023-05-25T05:58:03.224Z,36.10
2023-05-25T06:00:29.802Z,42.83
2023-05-25T06:02:56.532Z,28.38
2023-05-25T06:05:26.411Z,28.75
2023-05-25T06:07:54.536Z,27.23
2023-05-25T06:10:21.875Z,28.88
2023-05-25T06:12:48.683Z,28.38
2023-05-25T06:15:15.704Z,33.40
2023-05-25T06:17:43.237Z,32.95
2023-05-25T06:20:11.038Z,34.45
2023-05-25T06:22:37.642Z,38.53
2023-05-25T06:25:04.607Z,27.98
2023-05-25T06:27:31.066Z,25.92
2023-05-25T06:29:57.698Z,26.25
2023-05-25T06:32:24.230Z,29.98
2023-05-25T06:34:50.734Z,27.05
2023-05-25T06:37:18.524Z,21.75
2023-05-25T06:39:45.052Z,26.40
2023-05-25T06:42:11.775Z,32.40
2023-05-25T06:44:49.383Z,28.15
2023-05-25T06:47:15.850Z,25.60
2023-05-25T06:49:42.354Z,23.70
2023-05-25T06:52:08.824Z,25.23
2023-05-25T06:54:35.441Z,30.63
2023-05-25T06:57:02.442Z,27.80
2023-05-25T06:59:28.946Z,23.70
2023-05-25T07:01:56.224Z,28.05
2023-05-25T07:04:23.260Z,35.15
2023-05-25T07:06:49.715Z,25.35
2023-05-25T07:09:17.298Z,32.13
2023-05-25T07:11:43.765Z,22.98
2023-05-25T07:14:10.651Z,23.52
2023-05-25T07:16:37.197Z,26.13
2023-05-25T07:19:03.762Z,28.50
2023-05-25T07:21:36.523Z,32.95
2023-05-25T07:24:04.149Z,34.72
2023-05-25T07:26:31.851Z,30.30
2023-05-25T07:28:58.344Z,27.08
2023-05-25T07:31:24.880Z,24.33
2023-05-25T07:33:51.503Z,23.50
2023-05-25T07:36:19.157Z,21.02
2023-05-25T07:38:47.572Z,22.55
2023-05-25T07:41:14.027Z,27.50
2023-05-25T07:43:40.486Z,28.30
2023-05-25T07:46:06.970Z,22.35
2023-05-25T07:48:33.418Z,21.58
2023-05-25T07:50:59.883Z,23.30
2023-05-25T07:53:26.511Z,18.85
2023-05-25T07:55:52.991Z,19.60
2023-05-25T07:58:19.604Z,23.92
2023-05-25T08:00:46.102Z,23.30
2023-05-25T08:03:13.627Z,22.35
2023-05-25T08:05:40.511Z,25.10
2023-05-25T08:08:06.957Z,24.13
2023-05-25T08:10:33.570Z,22.92
2023-05-25T08:13:00.104Z,22.40
2023-05-25T08:15:27.137Z,27.35
2023-05-25T08:17:53.767Z,24.20
2023-05-25T08:20:20.363Z,19.38
2023-05-25T08:22:46.972Z,24.73
2023-05-25T08:25:13.524Z,17.58
2023-05-25T08:27:40.062Z,25.65
2023-05-25T08:30:07.094Z,14.10
2023-05-25T08:32:33.786Z,22.63
2023-05-25T08:35:01.654Z,17.17
2023-05-25T08:37:29.304Z,17.90
2023-05-25T08:39:55.785Z,26.65
2023-05-25T08:42:23.587Z,14.95
2023-05-25T08:44:50.245Z,20.13
2023-05-25T08:47:17.453Z,20.83
2023-05-25T08:49:45.244Z,19.85
2023-05-25T08:52:14.958Z,18.98
2023-05-25T08:54:44.252Z,21.30
2023-05-25T08:57:14.834Z,21.45
2023-05-25T08:59:56.989Z,19.35
2023-05-25T09:02:44.899Z,23.65
2023-05-25T09:05:13.202Z,25.00
2023-05-25T09:07:41.852Z,24.75
2023-05-25T09:10:08.946Z,16.25
2023-05-25T09:12:36.484Z,19.58
2023-05-25T09:15:03.264Z,23.67
2023-05-25T09:17:29.859Z,25.25
2023-05-25T09:19:56.665Z,20.10
2023-05-25T09:22:23.200Z,20.17
2023-05-25T09:24:49.943Z,19.30
2023-05-25T09:27:18.974Z,19.02
2023-05-25T09:29:51.948Z,23.13
2023-05-25T09:32:19.566Z,24.17
2023-05-25T09:34:47.004Z,19.30
2023-05-25T09:37:16.266Z,23.75
2023-05-25T09:39:44.200Z,23.85
2023-05-25T09:42:11.328Z,18.75
2023-05-25T09:44:38.788Z,17.58
2023-05-25T09:47:06.187Z,17.05
2023-05-25T09:49:32.850Z,15.95
2023-05-25T09:52:00.748Z,20.90
2023-05-25T09:54:27.260Z,21.75
2023-05-25T09:56:54.474Z,22.30
2023-05-25T09:59:22.761Z,18.83
2023-05-25T10:01:53.539Z,19.35
2023-05-25T10:04:20.300Z,20.67
2023-05-25T10:06:49.796Z,20.40
2023-05-25T10:09:18.536Z,15.98
2023-05-25T10:11:45.414Z,18.55
2023-05-25T10:14:17.432Z,19.10
2023-05-25T10:16:50.079Z,20.55
2023-05-25T10:19:22.927Z,18.70
2023-05-25T10:22:08.115Z,23.33
2023-05-25T10:24:42.849Z,17.95
2023-05-25T10:27:25.667Z,15.45
2023-05-25T10:29:55.947Z,16.15
2023-05-25T10:32:23.033Z,18.63
2023-05-25T10:34:52.185Z,18.95
2023-05-25T10:37:18.700Z,20.80
2023-05-25T10:39:45.983Z,16.05
2023-05-25T10:42:13.258Z,16.55
2023-05-25T10:44:43.370Z,16.58
2023-05-25T10:47:10.445Z,23.10
2023-05-25T10:49:55.100Z,21.38
2023-05-25T10:52:26.411Z,24.10
2023-05-25T10:54:56.274Z,21.75
2023-05-25T10:57:24.006Z,17.23
2023-05-25T10:59:52.153Z,19.42
2023-05-25T11:02:24.489Z,20.20
2023-05-25T11:04:51.042Z,17.48
2023-05-25T11:07:19.459Z,19.98
2023-05-25T11:09:58.358Z,16.85
2023-05-25T11:12:24.906Z,17.00
2023-05-25T11:15:10.591Z,14.15
2023-05-25T11:17:58.671Z,17.17
2023-05-25T11:20:28.110Z,17.95
2023-05-25T11:22:56.923Z,16.42
2023-05-25T11:28:11.444Z,22.25
2023-05-25T11:30:41.116Z,17.85
2023-05-25T11:33:10.366Z,24.95
2023-05-25T11:35:37.258Z,14.90
2023-05-25T11:38:07.929Z,16.50
2023-05-25T11:40:36.382Z,14.77
2023-05-25T11:43:04.959Z,16.07
2023-05-25T11:45:34.226Z,14.20
2023-05-25T11:48:01.022Z,12.48
2023-05-25T11:50:28.266Z,15.05
2023-05-25T11:52:54.871Z,18.95
2023-05-25T11:55:21.384Z,15.73
2023-05-25T11:57:55.550Z,25.73
2023-05-25T12:00:27.493Z,22.35
2023-05-25T12:02:54.434Z,25.23
2023-05-25T12:05:21.177Z,19.05
2023-05-25T12:07:47.719Z,22.25
2023-05-25T12:10:18.552Z,22.15
2023-05-25T12:15:20.616Z,22.08
2023-05-25T12:17:48.150Z,18.08
2023-05-25T12:20:17.149Z,22.58
2023-05-25T12:22:44.688Z,20.42
2023-05-25T12:25:12.997Z,21.17
2023-05-25T12:27:42.662Z,17.48
2023-05-25T12:30:10.462Z,20.27
2023-05-25T12:33:02.346Z,24.27
2023-05-25T12:35:30.315Z,24.33
2023-05-25T12:38:13.664Z,23.65
2023-05-25T12:40:41.198Z,28.77
2023-05-25T12:43:07.716Z,25.67
2023-05-25T12:45:34.188Z,25.60
2023-05-25T12:48:02.188Z,28.38
2023-05-25T12:50:29.503Z,25.30
2023-05-25T12:53:01.856Z,25.92
2023-05-25T12:55:30.245Z,18.67
2023-05-25T12:57:59.176Z,27.48
2023-05-25T13:00:37.180Z,22.10
2023-05-25T13:03:07.191Z,28.52
2023-05-25T13:05:36.642Z,39.55
2023-05-25T13:08:05.097Z,22.80
2023-05-25T13:10:32.874Z,19.88
2023-05-25T13:13:00.146Z,20.02
2023-05-25T13:15:27.153Z,21.25
2023-05-25T13:17:54.843Z,21.52
2023-05-25T13:20:23.280Z,17.05
2023-05-25T13:22:51.539Z,18.92
2023-05-25T13:25:18.408Z,21.35
2023-05-25T13:27:47.679Z,19.95
2023-05-25T13:30:15.241Z,19.75
2023-05-25T13:32:45.167Z,21.60
2023-05-25T13:35:18.355Z,16.13
2023-05-25T13:37:45.953Z,21.17
2023-05-25T13:40:12.606Z,15.18
2023-05-25T13:42:39.064Z,16.60
2023-05-25T13:45:06.062Z,11.00
2023-05-25T13:47:32.724Z,13.52
2023-05-25T13:49:59.315Z,11.88
2023-05-25T13:52:26.960Z,15.77
2023-05-25T13:54:53.429Z,23.42
2023-05-25T13:57:21.341Z,14.35
2023-05-25T13:59:47.819Z,11.27
2023-05-25T14:02:14.514Z,14.02
2023-05-25T14:04:41.234Z,16.70
2023-05-25T14:07:07.699Z,16.75
2023-05-25T14:09:34.169Z,12.98
2023-05-25T14:12:01.471Z,14.93
2023-05-25T14:14:31.910Z,12.18
2023-05-25T14:17:00.389Z,17.88
2023-05-25T14:19:27.142Z,13.43
2023-05-25T14:22:11.093Z,11.82
2023-05-25T14:24:38.040Z,22.48
2023-05-25T14:27:04.950Z,10.35
2023-05-25T14:29:31.474Z,11.45
2023-05-25T14:31:58.071Z,13.52
2023-05-25T14:34:24.574Z,15.85
2023-05-25T14:36:51.073Z,12.75
2023-05-25T14:39:17.615Z,17.75
2023-05-25T14:41:44.257Z,14.43
2023-05-25T14:44:11.210Z,12.93
2023-05-25T14:46:37.859Z,12.45
2023-05-25T14:49:04.385Z,10.18
2023-05-25T14:51:30.867Z,16.45
2023-05-25T14:54:00.177Z,15.55
2023-05-25T14:56:26.798Z,12.65
2023-05-25T14:58:53.243Z,9.82
2023-05-25T15:01:19.809Z,13.73
2023-05-25T15:03:46.513Z,14.23
2023-05-25T15:06:13.127Z,11.68
2023-05-25T15:08:40.351Z,10.73
2023-05-25T15:11:08.024Z,10.77
2023-05-25T15:13:34.486Z,11.15
2023-05-25T15:16:01.007Z,8.75
2023-05-25T15:18:27.498Z,12.23
2023-05-25T15:20:54.013Z,12.00
2023-05-25T15:23:20.525Z,10.23
2023-05-25T15:25:47.026Z,12.07
2023-05-25T15:28:13.491Z,11.10
2023-05-25T15:30:39.982Z,9.82
2023-05-25T15:33:06.565Z,11.52
2023-05-25T15:35:33.220Z,10.32
2023-05-25T15:38:00.966Z,10.82
2023-05-25T15:40:27.642Z,8.63
2023-05-25T15:42:54.102Z,9.50
2023-05-25T15:45:20.618Z,10.77
2023-05-25T15:47:47.326Z,10.57
2023-05-25T15:50:13.830Z,14.07
2023-05-25T15:52:41.502Z,10.40
2023-05-25T15:55:08.698Z,10.73
2023-05-25T15:57:35.166Z,10.40
2023-05-25T16:00:01.624Z,13.35
2023-05-25T16:02:28.131Z,10.27
2023-05-25T16:04:54.609Z,7.75
2023-05-25T16:07:21.073Z,13.52
2023-05-25T16:09:47.533Z,14.50
2023-05-25T16:12:14.062Z,12.55
2023-05-25T16:14:41.015Z,9.55
2023-05-25T16:17:07.901Z,11.32
2023-05-25T16:19:34.539Z,10.35
2023-05-25T16:22:00.999Z,13.82
2023-05-25T16:24:27.489Z,13.07
2023-05-25T16:26:54.027Z,9.43
2023-05-25T16:29:20.597Z,12.82
2023-05-25T16:31:47.100Z,9.52
2023-05-25T16:34:13.639Z,10.02
2023-05-25T16:36:40.114Z,9.65
2023-05-25T16:39:07.916Z,11.52
2023-05-25T16:41:34.400Z,19.48
2023-05-25T16:44:01.453Z,11.68
2023-05-25T16:46:28.081Z,11.73
2023-05-25T16:48:54.565Z,15.30
2023-05-25T16:51:21.019Z,12.43
2023-05-25T16:53:47.517Z,11.05
2023-05-25T16:56:14.029Z,10.45
2023-05-25T16:58:40.518Z,8.23
2023-05-25T17:01:07.029Z,12.40
2023-05-25T17:03:34.342Z,15.32
2023-05-25T17:06:01.033Z,12.95
2023-05-25T17:08:27.483Z,15.52
2023-05-25T17:10:54.008Z,14.80
2023-05-25T17:13:21.056Z,13.88
2023-05-25T17:15:47.832Z,8.25
2023-05-25T17:18:15.125Z,12.77
2023-05-25T17:20:41.768Z,12.63
2023-05-25T17:23:09.395Z,9.02
2023-05-25T17:25:35.848Z,8.05
2023-05-25T17:28:02.309Z,8.95
2023-05-25T17:30:28.786Z,8.52
2023-05-25T17:33:01.283Z,10.93
2023-05-25T17:35:31.190Z,13.60
2023-05-25T17:37:57.672Z,6.70
2023-05-25T17:40:24.139Z,12.50
2023-05-25T17:42:50.654Z,10.02
2023-05-25T17:45:18.220Z,12.73
2023-05-25T17:47:44.732Z,9.70
2023-05-25T17:50:11.272Z,7.75
2023-05-25T17:52:37.732Z,6.88
2023-05-25T17:55:05.574Z,12.00
2023-05-25T17:57:32.053Z,10.13
2023-05-25T17:59:58.506Z,10.82
2023-05-25T18:02:25.062Z,9.32
2023-05-25T18:04:51.586Z,7.78
2023-05-25T18:07:19.612Z,11.70
2023-05-25T18:09:46.072Z,12.98
2023-05-25T18:12:12.569Z,15.63
2023-05-25T18:14:39.028Z,9.45
2023-05-25T18:17:05.616Z,8.30
2023-05-25T18:19:32.133Z,8.43
2023-05-25T18:21:58.603Z,9.27
2023-05-25T18:24:25.073Z,12.00
2023-05-25T18:26:51.658Z,10.30
2023-05-25T18:29:18.160Z,14.13
2023-05-25T18:31:47.174Z,8.07
2023-05-25T18:34:13.899Z,10.55
2023-05-25T18:36:40.413Z,11.25
2023-05-25T18:39:06.917Z,11.80
2023-05-25T18:41:33.443Z,10.00
2023-05-25T18:43:59.982Z,10.93
2023-05-25T18:46:27.888Z,15.32
2023-05-25T18:48:54.383Z,12.70
2023-05-25T18:51:23.094Z,9.73
2023-05-25T18:53:49.559Z,12.00
2023-05-25T18:56:16.083Z,13.48
2023-05-25T18:58:42.541Z,11.25
2023-05-25T19:01:08.997Z,9.77
2023-05-25T19:03:35.555Z,15.40
2023-05-25T19:06:02.103Z,11.25
2023-05-25T19:08:28.569Z,9.55
2023-05-25T19:10:55.039Z,11.95
2023-05-25T19:13:22.840Z,14.45
2023-05-25T19:15:50.379Z,11.55
2023-05-25T19:18:16.921Z,12.15
2023-05-25T19:20:43.584Z,12.30
2023-05-25T19:23:10.160Z,12.45
2023-05-25T19:25:36.872Z,14.68
2023-05-25T19:28:03.457Z,15.43
2023-05-25T19:30:29.942Z,13.02
2023-05-25T19:32:56.440Z,62.35
2023-05-25T19:35:22.965Z,96.57
2023-05-25T19:37:49.423Z,33.17
2023-05-25T19:40:15.898Z,20.80
2023-05-25T19:42:42.498Z,13.73
2023-05-25T19:45:09.237Z,8.80
2023-05-25T19:47:35.889Z,12.15
2023-05-25T19:50:02.839Z,11.75
2023-05-25T19:52:29.288Z,8.93
2023-05-25T19:54:55.836Z,12.73
2023-05-25T19:57:22.466Z,9.32
2023-05-25T19:59:50.542Z,11.60
2023-05-25T20:02:17.135Z,8.57
2023-05-25T20:04:43.665Z,10.40
2023-05-25T20:07:10.189Z,7.40
2023-05-25T20:09:38.468Z,9.15
2023-05-25T20:12:06.292Z,9.25
2023-05-25T20:14:33.698Z,14.52
2023-05-25T20:17:00.203Z,15.50
2023-05-25T20:19:26.697Z,11.82
2023-05-25T20:21:53.174Z,14.10
2023-05-25T20:24:19.626Z,13.55
2023-05-25T20:26:46.142Z,17.52
2023-05-25T20:29:12.603Z,14.40
2023-05-25T20:31:39.124Z,14.45
2023-05-25T20:34:06.326Z,12.60
2023-05-25T20:36:33.002Z,34.30
2023-05-25T20:38:59.648Z,17.67
2023-05-25T20:41:26.489Z,12.75
2023-05-25T20:43:52.948Z,10.75
2023-05-25T20:46:19.489Z,7.85
2023-05-25T20:48:46.009Z,13.65
2023-05-25T20:51:12.555Z,10.35
2023-05-25T20:53:39.053Z,7.43
2023-05-25T20:56:05.797Z,14.13
2023-05-25T20:58:32.278Z,10.88
2023-05-25T21:00:58.779Z,17.95
2023-05-25T21:03:25.534Z,41.58
2023-05-25T21:05:52.015Z,30.67
2023-05-25T21:08:18.486Z,20.95
2023-05-25T21:10:44.961Z,19.75
2023-05-25T21:13:11.553Z,16.58
2023-05-25T21:15:38.032Z,7.72
2023-05-25T21:18:06.859Z,10.82
2023-05-25T21:20:33.456Z,10.10
2023-05-25T21:23:00.666Z,10.35
2023-05-25T21:25:27.127Z,6.95
2023-05-25T21:27:55.456Z,10.52
2023-05-25T21:30:24.300Z,11.75
2023-05-25T21:32:51.084Z,14.07
2023-05-25T21:35:18.126Z,11.98
2023-05-25T21:37:45.305Z,14.15
2023-05-25T21:40:12.068Z,14.70
2023-05-25T21:42:38.550Z,17.27
2023-05-25T21:45:05.416Z,14.50
2023-05-25T21:47:31.941Z,12.35
2023-05-25T21:49:58.513Z,10.45
2023-05-25T21:52:24.968Z,12.63
2023-05-25T21:54:51.465Z,14.65
2023-05-25T21:57:17.961Z,16.35
2023-05-25T21:59:44.446Z,12.35
2023-05-25T22:02:11.332Z,15.00
2023-05-25T22:04:37.852Z,11.52
2023-05-25T22:07:04.578Z,11.93
2023-05-25T22:09:31.772Z,14.32
2023-05-25T22:11:58.239Z,11.95
2023-05-25T22:14:24.723Z,12.18
2023-05-25T22:16:51.200Z,10.77
2023-05-25T22:19:17.716Z,8.55
2023-05-25T22:21:44.185Z,9.95
2023-05-25T22:24:10.730Z,13.02
2023-05-25T22:26:37.195Z,13.60
2023-05-25T22:29:03.673Z,11.95
2023-05-25T22:31:30.218Z,16.58
2023-05-25T22:33:56.787Z,17.83
2023-05-25T22:36:23.336Z,18.70
2023-05-25T22:38:49.795Z,10.60
2023-05-25T22:41:16.322Z,11.55
2023-05-25T22:43:43.547Z,13.80
2023-05-25T22:46:10.093Z,13.50
2023-05-25T22:48:36.630Z,11.55
2023-05-25T22:51:03.289Z,12.70
2023-05-25T22:53:29.734Z,13.07
2023-05-25T22:55:56.237Z,12.82
2023-05-25T22:58:22.722Z,14.27
2023-05-25T23:00:49.207Z,12.93
2023-05-25T23:03:15.848Z,12.30
2023-05-25T23:05:42.424Z,12.65
2023-05-25T23:08:08.963Z,16.80
2023-05-25T23:10:35.433Z,11.75
2023-05-25T23:13:02.273Z,12.15
2023-05-25T23:15:30.601Z,14.13
2023-05-25T23:17:57.123Z,16.08
2023-05-25T23:20:23.738Z,13.30
2023-05-25T23:22:50.410Z,14.05
2023-05-25T23:25:16.979Z,14.13
2023-05-25T23:27:43.440Z,17.45
2023-05-25T23:30:10.449Z,11.65
2023-05-25T23:32:36.893Z,13.52
2023-05-25T23:35:04.090Z,13.43
2023-05-25T23:37:30.537Z,14.82
2023-05-25T23:39:56.988Z,13.80
2023-05-25T23:42:23.460Z,17.77
2023-05-25T23:44:49.942Z,16.70
2023-05-25T23:47:16.447Z,16.65
2023-05-25T23:49:42.913Z,19.25
2023-05-25T23:52:09.396Z,17.08
2023-05-25T23:54:35.980Z,19.90
2023-05-25T23:57:02.439Z,14.57
2023-05-25T23:59:28.884Z,15.63
